Time;durP1;ratioP1;P1;durP2;ratioP2;P2;SDS_P1;SDS_P2;PMS_P1;PMS_P2;Temp;Humidity;BMP_temperature;BMP_pressure;BME280_temperature;BME280_humidity;BME280_pressure;Samples;Min_cycle;Max_cycle;Signal;HPM_P1;HPM_P2
2021/05/10 00:01:23;;;;;;;3.72;3.42;;;15.40;95.80;;;;;;6224551;28;20069;-75
2021/05/10 00:04:25;;;;;;;2.80;2.58;;;15.30;96.30;;;;;;6224919;28;20052;-75
2021/05/10 00:07:26;;;;;;;2.88;2.58;;;15.30;96.80;;;;;;6225044;28;20144;-77
2021/05/10 00:10:27;;;;;;;6.50;2.63;;;15.30;97.10;;;;;;6224323;28;20053;-76
2021/05/10 00:13:29;;;;;;;2.83;2.58;;;15.30;97.30;;;;;;6224872;28;20132;-76
2021/05/10 00:16:32;;;;;;;4.13;2.80;;;15.30;97.50;;;;;;6224273;28;20443;-75
2021/05/10 00:19:33;;;;;;;3.20;2.95;;;15.40;97.60;;;;;;6222114;28;20140;-75
2021/05/10 00:22:35;;;;;;;4.82;2.80;;;15.50;97.40;;;;;;6223379;28;20389;-76
2021/05/10 00:25:37;;;;;;;3.58;2.88;;;15.50;96.90;;;;;;6223922;28;20049;-76
2021/05/10 00:28:39;;;;;;;5.45;2.28;;;15.50;96.90;;;;;;6224048;28;20124;-76
2021/05/10 00:31:40;;;;;;;6.40;3.38;;;15.50;96.80;;;;;;6224894;28;20054;-76
2021/05/10 00:34:41;;;;;;;4.32;2.78;;;15.50;97.00;;;;;;6223685;28;20545;-76
2021/05/10 00:37:43;;;;;;;4.18;2.70;;;15.50;96.90;;;;;;6224266;28;20185;-76
2021/05/10 00:40:45;;;;;;;3.45;3.13;;;15.50;96.80;;;;;;6223331;28;20125;-76
2021/05/10 00:43:47;;;;;;;3.28;2.35;;;15.50;96.60;;;;;;6224465;28;20081;-75
2021/05/10 00:46:49;;;;;;;3.92;2.40;;;15.50;96.30;;;;;;6224140;28;20085;-76
2021/05/10 00:49:51;;;;;;;3.95;2.53;;;15.50;96.40;;;;;;6223870;28;20053;-75
2021/05/10 00:52:52;;;;;;;14.98;4.38;;;15.40;96.50;;;;;;6223951;28;20056;-75
2021/05/10 00:55:55;;;;;;;3.47;3.17;;;15.20;96.70;;;;;;6224055;28;20085;-78
2021/05/10 00:58:57;;;;;;;2.33;1.90;;;15.20;96.80;;;;;;6224458;28;20046;-77
2021/05/10 01:01:58;;;;;;;8.02;2.33;;;15.20;96.10;;;;;;6224735;28;20073;-76
2021/05/10 01:05:00;;;;;;;3.33;2.70;;;15.30;95.60;;;;;;6225607;28;20073;-76
2021/05/10 01:08:01;;;;;;;4.50;2.58;;;15.40;96.00;;;;;;6225966;28;20054;-76
2021/05/10 01:11:02;;;;;;;2.40;2.20;;;15.30;96.20;;;;;;6225859;28;20169;-77
2021/05/10 01:14:05;;;;;;;3.25;2.63;;;15.20;96.60;;;;;;6225116;28;20444;-76
2021/05/10 01:17:06;;;;;;;3.72;3.42;;;15.10;97.10;;;;;;6225286;28;20536;-75
2021/05/10 01:20:09;;;;;;;4.68;2.60;;;14.90;97.60;;;;;;6223680;28;20077;-77
2021/05/10 01:23:12;;;;;;;3.35;2.90;;;14.90;97.90;;;;;;6223530;28;20057;-76
2021/05/10 01:26:13;;;;;;;5.13;3.70;;;14.70;98.30;;;;;;6223035;28;20123;-77
2021/05/10 01:29:15;;;;;;;5.25;2.88;;;14.70;98.90;;;;;;6221806;28;20478;-76
2021/05/10 01:32:17;;;;;;;7.35;3.22;;;14.70;98.90;;;;;;6222692;28;20515;-76
2021/05/10 01:35:21;;;;;;;4.07;2.67;;;14.70;98.80;;;;;;6223050;28;20081;-76
2021/05/10 01:38:23;;;;;;;3.00;2.50;;;14.80;98.60;;;;;;6222747;28;20128;-77
2021/05/10 01:41:24;;;;;;;4.10;2.80;;;14.90;98.40;;;;;;6222140;28;20523;-77
2021/05/10 01:44:25;;;;;;;2.75;2.40;;;14.90;98.00;;;;;;6222611;28;20121;-77
2021/05/10 01:47:27;;;;;;;4.90;2.92;;;15.00;97.70;;;;;;6223368;28;20084;-77
2021/05/10 01:50:28;;;;;;;2.72;2.50;;;14.90;97.60;;;;;;6222116;28;20081;-78
2021/05/10 01:53:32;;;;;;;2.83;2.58;;;14.80;98.00;;;;;;6222562;28;20066;-77
2021/05/10 01:56:36;;;;;;;2.80;2.58;;;14.80;98.20;;;;;;6222376;28;20052;-77
2021/05/10 01:59:37;;;;;;;3.58;2.90;;;14.80;97.80;;;;;;6222495;28;20046;-76
2021/05/10 02:02:39;;;;;;;5.43;3.67;;;14.80;97.30;;;;;;6222600;28;20084;-77
2021/05/10 02:05:42;;;;;;;12.05;2.65;;;14.90;96.80;;;;;;6222503;28;20046;-78
2021/05/10 02:08:45;;;;;;;4.50;3.33;;;15.00;96.50;;;;;;6222157;28;20132;-78
2021/05/10 02:11:46;;;;;;;4.30;2.78;;;15.00;96.50;;;;;;6222930;28;20046;-77
2021/05/10 02:14:48;;;;;;;5.07;2.95;;;15.00;96.40;;;;;;6222500;28;20499;-77
2021/05/10 02:17:49;;;;;;;5.28;3.28;;;15.10;96.60;;;;;;6221993;28;20760;-77
2021/05/10 02:20:51;;;;;;;4.32;2.72;;;15.20;96.40;;;;;;6221940;28;20056;-77
2021/05/10 02:23:54;;;;;;;4.20;3.33;;;15.20;96.30;;;;;;6222489;28;20499;-76
2021/05/10 02:26:55;;;;;;;4.85;3.40;;;15.30;96.30;;;;;;6222415;28;20057;-77
2021/05/10 02:29:56;;;;;;;3.70;3.03;;;15.30;96.30;;;;;;6222203;28;20129;-77
2021/05/10 02:32:59;;;;;;;6.43;5.63;;;15.30;96.10;;;;;;6222245;28;20049;-77
2021/05/10 02:36:01;;;;;;;3.33;3.03;;;15.20;96.50;;;;;;6221857;28;20052;-77
2021/05/10 02:39:03;;;;;;;4.00;2.53;;;15.20;96.50;;;;;;6222099;28;20150;-77
2021/05/10 02:42:05;;;;;;;7.82;2.92;;;15.20;96.30;;;;;;6221635;28;20542;-77
2021/05/10 02:45:09;;;;;;;5.05;2.70;;;15.10;96.40;;;;;;6222813;28;20121;-77
2021/05/10 02:48:11;;;;;;;4.82;2.83;;;15.10;96.30;;;;;;6226610;28;20082;-78
2021/05/10 02:51:12;;;;;;;6.47;2.90;;;15.00;96.40;;;;;;6226931;28;20082;-77
2021/05/10 02:54:14;;;;;;;6.15;2.78;;;14.90;96.50;;;;;;6226283;28;20096;-77
2021/05/10 02:57:16;;;;;;;3.72;2.97;;;14.90;96.90;;;;;;6226640;28;20069;-77
2021/05/10 03:00:19;;;;;;;5.10;2.90;;;14.70;97.30;;;;;;6226117;28;20042;-77
2021/05/10 03:03:21;;;;;;;3.95;3.10;;;14.60;97.80;;;;;;6226659;28;20610;-77
2021/05/10 03:06:22;;;;;;;5.85;3.08;;;14.50;98.20;;;;;;6226142;28;20076;-77
2021/05/10 03:09:24;;;;;;;3.92;3.10;;;14.50;98.30;;;;;;6225689;28;20078;-78
2021/05/10 03:12:25;;;;;;;2.95;2.75;;;14.50;98.10;;;;;;6226252;28;20096;-77
2021/05/10 03:15:28;;;;;;;2.63;2.42;;;14.60;97.90;;;;;;6226849;28;20052;-77
2021/05/10 03:18:29;;;;;;;4.22;2.70;;;14.70;98.10;;;;;;6225913;28;20130;-77
2021/05/10 03:21:31;;;;;;;4.90;2.80;;;14.70;98.10;;;;;;6225631;28;20113;-77
2021/05/10 03:24:33;;;;;;;4.10;2.90;;;14.70;98.10;;;;;;6225603;28;20068;-78
2021/05/10 03:27:39;;;;;;;2.78;2.58;;;14.80;98.10;;;;;;6226137;28;20551;-78
2021/05/10 03:30:41;;;;;;;2.58;2.35;;;14.90;96.00;;;;;;6225562;28;20454;-78
2021/05/10 03:33:42;;;;;;;3.55;2.63;;;15.10;94.90;;;;;;6225812;28;20128;-79
2021/05/10 03:36:43;;;;;;;3.55;2.33;;;15.30;94.70;;;;;;6238478;23;20093;-77
2021/05/10 03:39:46;;;;;;;2.83;2.60;;;15.40;94.20;;;;;;6224859;28;20074;-77
2021/05/10 03:42:47;;;;;;;1.95;1.75;;;15.50;93.30;;;;;;6225015;28;20104;-77
2021/05/10 03:45:48;;;;;;;2.72;2.30;;;15.60;92.00;;;;;;6224486;28;20144;-77
2021/05/10 03:48:50;;;;;;;4.65;1.73;;;15.70;91.00;;;;;;6224079;28;20462;-77
2021/05/10 03:51:51;;;;;;;2.65;2.30;;;15.80;89.80;;;;;;6224472;28;20053;-78
2021/05/10 03:54:53;;;;;;;4.88;2.10;;;15.90;89.00;;;;;;6225228;28;20606;-77
2021/05/10 03:57:56;;;;;;;2.42;2.17;;;16.00;89.60;;;;;;6223431;28;20137;-78
2021/05/10 04:00:57;;;;;;;3.40;2.10;;;16.00;87.30;;;;;;6223830;28;20504;-77
2021/05/10 04:04:06;;;;;;;3.45;2.17;;;16.10;85.20;;;;;;6224498;28;20136;-78
2021/05/10 04:07:21;;;;;;;10.05;2.28;;;16.10;84.20;;;;;;6224303;28;20572;-78
2021/05/10 04:13:49;;;;;;;2.58;2.28;;;16.30;85.80;;;;;;6224771;28;20176;-78
2021/05/10 04:16:50;;;;;;;3.17;2.35;;;16.30;85.60;;;;;;6224261;28;20054;-78
2021/05/10 04:19:52;;;;;;;4.28;2.13;;;16.30;83.90;;;;;;6223929;28;20129;-77
2021/05/10 04:22:53;;;;;;;3.75;2.35;;;16.40;84.60;;;;;;6224051;28;20111;-77
2021/05/10 04:25:56;;;;;;;4.30;2.45;;;16.30;86.60;;;;;;6223884;28;20073;-78
2021/05/10 04:28:57;;;;;;;3.10;2.22;;;16.20;87.60;;;;;;6223046;28;20581;-77
2021/05/10 04:31:58;;;;;;;4.35;3.20;;;16.20;89.00;;;;;;6223109;28;20057;-77
2021/05/10 04:35:00;;;;;;;2.97;2.42;;;16.20;90.10;;;;;;6223972;28;20046;-77
2021/05/10 04:38:04;;;;;;;3.05;2.42;;;16.20;88.20;;;;;;6222838;28;20415;-77
2021/05/10 04:41:06;;;;;;;5.72;3.30;;;16.20;90.00;;;;;;6222840;28;20045;-77
2021/05/10 04:44:07;;;;;;;5.32;2.53;;;16.20;90.40;;;;;;6223131;28;20091;-77
2021/05/10 04:47:09;;;;;;;5.55;2.38;;;16.30;90.80;;;;;;6224340;28;20135;-77
2021/05/10 04:50:11;;;;;;;4.65;3.78;;;16.40;91.30;;;;;;6222626;28;20073;-78
2021/05/10 04:53:14;;;;;;;3.17;2.70;;;16.60;88.20;;;;;;6222996;28;20073;-77
2021/05/10 04:56:16;;;;;;;2.67;2.30;;;16.80;89.00;;;;;;6222714;28;20077;-77
2021/05/10 04:59:17;;;;;;;2.58;2.35;;;16.90;88.50;;;;;;6222998;28;20053;-76
2021/05/10 05:02:18;;;;;;;3.38;2.47;;;17.00;87.90;;;;;;6223613;28;20146;-77
2021/05/10 05:05:20;;;;;;;3.17;2.65;;;17.10;87.30;;;;;;6223144;28;20142;-77
2021/05/10 05:08:21;;;;;;;3.45;2.97;;;17.10;88.30;;;;;;6223557;28;20129;-79
2021/05/10 05:11:23;;;;;;;3.65;2.55;;;17.00;88.60;;;;;;6225017;28;20081;-77
2021/05/10 05:14:24;;;;;;;5.15;3.08;;;17.00;88.80;;;;;;6222896;28;20447;-78
2021/05/10 05:17:26;;;;;;;3.65;2.45;;;17.00;87.40;;;;;;6223382;28;20415;-78
2021/05/10 05:20:27;;;;;;;3.13;2.72;;;17.00;87.10;;;;;;6222656;28;20554;-77
2021/05/10 05:23:29;;;;;;;3.28;2.58;;;17.00;85.90;;;;;;6223130;28;20057;-76
2021/05/10 05:26:31;;;;;;;6.20;3.08;;;17.10;86.40;;;;;;6222224;28;20070;-77
2021/05/10 05:29:32;;;;;;;5.85;2.80;;;17.10;87.20;;;;;;6221915;28;20092;-76
2021/05/10 05:32:34;;;;;;;5.43;2.40;;;17.30;87.90;;;;;;6222241;28;20046;-77
2021/05/10 05:35:35;;;;;;;5.10;2.72;;;17.30;89.30;;;;;;6222709;28;20582;-78
2021/05/10 05:38:37;;;;;;;6.45;2.75;;;17.40;90.10;;;;;;6222404;28;20054;-77
2021/05/10 05:41:39;;;;;;;3.60;2.63;;;17.30;90.00;;;;;;6222115;28;20093;-77
2021/05/10 05:44:45;;;;;;;4.68;4.28;;;17.40;89.50;;;;;;6221691;28;20160;-77
2021/05/10 05:47:46;;;;;;;4.43;3.25;;;17.40;90.30;;;;;;6222084;28;20065;-77
2021/05/10 05:50:47;;;;;;;2.60;2.38;;;17.50;88.30;;;;;;6213863;28;20117;-77
2021/05/10 05:53:52;;;;;;;3.08;1.65;;;17.50;85.80;;;;;;6201130;28;20074;-77
2021/05/10 05:56:54;;;;;;;8.43;2.55;;;17.60;84.90;;;;;;6197159;28;20150;-77
2021/05/10 05:59:57;;;;;;;4.85;2.38;;;17.80;86.10;;;;;;6196969;28;20077;-76
2021/05/10 06:02:59;;;;;;;3.90;2.47;;;17.90;83.90;;;;;;6197240;28;20281;-77
2021/05/10 06:06:00;;;;;;;6.45;3.13;;;18.10;85.50;;;;;;6211425;28;20494;-77
2021/05/10 06:09:06;;;;;;;3.00;1.77;;;18.30;85.40;;;;;;6198866;28;20070;-79
2021/05/10 06:12:09;;;;;;;8.38;2.85;;;18.30;81.70;;;;;;6196969;28;20058;-76
2021/05/10 06:15:11;;;;;;;1.92;1.75;;;18.40;86.00;;;;;;6219682;28;20060;-77
2021/05/10 06:18:12;;;;;;;5.55;1.85;;;18.50;81.00;;;;;;6220903;28;20129;-76
2021/05/10 06:21:14;;;;;;;2.25;2.05;;;18.80;80.10;;;;;;6223970;28;20046;-76
2021/05/10 06:24:15;;;;;;;6.90;2.50;;;18.90;80.10;;;;;;6201465;28;20125;-76
2021/05/10 06:27:17;;;;;;;3.47;2.20;;;19.00;77.50;;;;;;6201878;28;20128;-77
2021/05/10 06:30:19;;;;;;;6.07;2.40;;;19.00;76.10;;;;;;6201257;28;20389;-76
2021/05/10 06:33:20;;;;;;;4.53;2.38;;;19.10;79.20;;;;;;6201374;28;20060;-76
2021/05/10 06:36:22;;;;;;;6.65;2.80;;;19.20;78.90;;;;;;6201055;28;20482;-76
2021/05/10 06:39:24;;;;;;;5.70;1.75;;;19.40;75.00;;;;;;6211015;28;20158;-77
2021/05/10 06:42:27;;;;;;;5.00;1.80;;;19.70;72.70;;;;;;6225882;28;20133;-77
2021/05/10 06:45:28;;;;;;;4.00;1.95;;;19.80;70.40;;;;;;6225568;28;20042;-76
2021/05/10 06:48:31;;;;;;;5.80;1.90;;;20.00;70.20;;;;;;6225635;28;20069;-75
2021/05/10 06:51:33;;;;;;;4.88;3.13;;;20.10;68.70;;;;;;6225009;28;20061;-76
2021/05/10 06:54:34;;;;;;;2.60;2.15;;;20.20;68.90;;;;;;6224562;28;20505;-76
2021/05/10 06:57:36;;;;;;;4.47;2.80;;;20.10;69.30;;;;;;6225044;28;20073;-76
2021/05/10 07:00:38;;;;;;;3.10;2.00;;;20.00;69.20;;;;;;6225234;28;20117;-76
2021/05/10 07:03:39;;;;;;;4.43;2.28;;;20.00;69.00;;;;;;6226002;28;20403;-76
2021/05/10 07:06:42;;;;;;;6.55;2.33;;;20.10;67.90;;;;;;6225441;28;20074;-76
2021/05/10 07:09:44;;;;;;;3.92;1.85;;;20.30;66.40;;;;;;6224729;28;20218;-77
2021/05/10 07:12:46;;;;;;;2.72;2.13;;;20.40;66.20;;;;;;6225276;28;20842;-77
2021/05/10 07:15:47;;;;;;;6.05;2.05;;;20.40;65.30;;;;;;6224692;28;20141;-77
2021/05/10 07:18:49;;;;;;;5.63;1.95;;;20.40;65.70;;;;;;6225690;28;20133;-76
2021/05/10 07:21:50;;;;;;;4.75;2.50;;;20.50;65.00;;;;;;6225166;28;20128;-76
2021/05/10 07:24:51;;;;;;;2.83;2.13;;;20.50;65.00;;;;;;6224996;28;20045;-76
2021/05/10 07:27:54;;;;;;;5.30;1.83;;;21.10;63.30;;;;;;6224726;28;20537;-77
2021/05/10 07:30:55;;;;;;;5.15;1.85;;;21.30;61.40;;;;;;6224524;28;20056;-77
2021/05/10 07:33:56;;;;;;;2.28;1.85;;;21.50;61.20;;;;;;6224839;28;20070;-76
2021/05/10 07:36:58;;;;;;;4.07;1.70;;;21.60;60.80;;;;;;6224570;28;20124;-78
2021/05/10 07:39:59;;;;;;;3.97;1.60;;;22.10;58.70;;;;;;6225889;28;20057;-77
2021/05/10 07:43:02;;;;;;;5.07;1.27;;;22.30;57.80;;;;;;6224967;28;20053;-77
2021/05/10 07:46:03;;;;;;;4.72;2.53;;;22.30;57.90;;;;;;6224832;28;20048;-77
2021/05/10 07:49:05;;;;;;;1.88;1.67;;;22.40;57.30;;;;;;6224758;28;20057;-77
2021/05/10 07:52:06;;;;;;;6.50;1.63;;;22.70;57.20;;;;;;6224532;28;22703;-77
2021/05/10 07:55:08;;;;;;;3.08;1.35;;;22.90;56.60;;;;;;6220580;28;20077;-77
2021/05/10 07:58:10;;;;;;;4.45;1.23;;;22.80;55.80;;;;;;6224170;28;20053;-75
2021/05/10 08:01:12;;;;;;;1.83;1.20;;;22.40;55.70;;;;;;6224201;28;20070;-76
2021/05/10 08:04:13;;;;;;;4.22;1.63;;;21.90;57.10;;;;;;6224491;28;20176;-76
2021/05/10 08:07:14;;;;;;;2.45;1.35;;;21.50;57.90;;;;;;6224602;28;20192;-77
2021/05/10 08:10:16;;;;;;;2.35;1.10;;;21.20;58.30;;;;;;6223498;28;20042;-77
2021/05/10 08:13:18;;;;;;;2.53;1.58;;;20.90;59.70;;;;;;6223815;28;20073;-76
2021/05/10 08:16:19;;;;;;;7.18;1.50;;;20.70;60.50;;;;;;6224111;28;20145;-78
2021/05/10 08:19:21;;;;;;;2.90;1.45;;;20.80;60.70;;;;;;6225118;28;20052;-76
2021/05/10 08:22:22;;;;;;;5.72;1.50;;;21.00;61.30;;;;;;6224127;28;20049;-77
2021/05/10 08:25:24;;;;;;;4.90;1.60;;;21.00;61.80;;;;;;6224394;28;20116;-77
2021/05/10 08:28:26;;;;;;;2.33;1.40;;;21.00;62.20;;;;;;6224191;28;20080;-77
2021/05/10 08:31:27;;;;;;;3.15;1.48;;;21.00;61.40;;;;;;6224220;28;20467;-77
2021/05/10 08:34:29;;;;;;;6.00;1.27;;;21.00;61.50;;;;;;6224896;28;20534;-78
2021/05/10 08:37:30;;;;;;;3.28;1.30;;;21.00;59.40;;;;;;6226347;28;20511;-78
2021/05/10 08:40:31;;;;;;;6.65;1.13;;;21.00;59.70;;;;;;6225603;28;20088;-77
2021/05/10 08:43:33;;;;;;;3.53;0.80;;;20.90;59.50;;;;;;6225795;28;20117;-77
2021/05/10 08:46:36;;;;;;;2.92;0.82;;;20.80;58.90;;;;;;6226772;28;20119;-78
2021/05/10 08:49:38;;;;;;;0.90;0.60;;;20.90;59.00;;;;;;6224890;28;20416;-78
2021/05/10 08:52:39;;;;;;;1.35;1.10;;;21.00;57.70;;;;;;6223855;28;20575;-77
2021/05/10 08:55:42;;;;;;;1.52;0.77;;;21.30;57.30;;;;;;6222711;28;20060;-77
2021/05/10 08:58:45;;;;;;;0.35;0.35;;;21.50;56.70;;;;;;6223623;28;20042;-77
2021/05/10 09:01:49;;;;;;;2.78;0.80;;;21.90;55.70;;;;;;6224567;28;20454;-78
2021/05/10 09:04:50;;;;;;;0.68;0.50;;;22.00;55.00;;;;;;6223514;28;20583;-78
2021/05/10 09:08:06;;;;;;;2.53;0.70;;;22.00;55.20;;;;;;6224063;28;20052;-78
2021/05/10 09:11:08;;;;;;;3.60;0.52;;;22.10;55.30;;;;;;6223726;28;20048;-78
2021/05/10 09:14:11;;;;;;;0.50;0.50;;;22.20;55.10;;;;;;6223979;28;20057;-77
2021/05/10 09:17:12;;;;;;;0.55;0.40;;;22.30;54.00;;;;;;6222803;28;20244;-77
2021/05/10 09:20:19;;;;;;;2.25;2.05;;;22.50;53.90;;;;;;6222893;28;20045;-77
2021/05/10 09:23:20;;;;;;;1.55;0.50;;;22.80;53.80;;;;;;6222879;28;20156;-75
2021/05/10 09:26:29;;;;;;;4.78;0.90;;;23.10;53.40;;;;;;6222102;28;20065;-75
2021/05/10 09:29:32;;;;;;;0.38;0.35;;;23.20;52.80;;;;;;6221531;28;20196;-76
2021/05/10 09:32:33;;;;;;;0.45;0.40;;;23.10;52.60;;;;;;6222140;28;20124;-76
2021/05/10 09:35:34;;;;;;;0.60;0.40;;;23.30;52.30;;;;;;6223264;28;20471;-76
2021/05/10 09:38:37;;;;;;;2.10;0.40;;;23.50;51.40;;;;;;6236294;23;20180;-76
2021/05/10 09:41:57;;;;;;;5.68;0.63;;;23.60;51.00;;;;;;6223011;28;20384;-77
2021/05/10 09:45:00;;;;;;;1.77;0.60;;;23.60;51.70;;;;;;6222839;28;20074;-76
2021/05/10 09:48:06;;;;;;;0.30;0.30;;;23.50;51.20;;;;;;6225683;28;20045;-76
2021/05/10 09:51:09;;;;;;;0.75;0.50;;;23.40;50.80;;;;;;6224350;28;20646;-76
2021/05/10 09:54:11;;;;;;;1.38;0.45;;;23.30;51.50;;;;;;6223633;28;20129;-76
2021/05/10 09:57:13;;;;;;;0.65;0.38;;;23.40;51.10;;;;;;6213039;28;20053;-76
2021/05/10 10:00:17;;;;;;;1.20;0.50;;;23.50;50.40;;;;;;6225068;28;20057;-76
2021/05/10 10:03:27;;;;;;;1.42;0.75;;;23.60;50.00;;;;;;6224272;28;20473;-76
2021/05/10 10:06:29;;;;;;;1.85;0.57;;;23.50;49.50;;;;;;6223484;28;20050;-76
2021/05/10 10:09:31;;;;;;;2.08;0.50;;;23.50;49.40;;;;;;6222660;28;20468;-76
2021/05/10 10:12:33;;;;;;;1.15;0.60;;;23.30;49.60;;;;;;6221447;28;20065;-76
2021/05/10 10:15:35;;;;;;;0.63;0.63;;;23.20;50.10;;;;;;6199385;28;20144;-76
2021/05/10 10:18:38;;;;;;;2.15;0.50;;;23.20;50.60;;;;;;6198125;28;20070;-76
2021/05/10 10:21:40;;;;;;;2.00;0.40;;;23.30;50.60;;;;;;6198454;28;20125;-76
2021/05/10 10:24:43;;;;;;;0.25;0.25;;;23.60;50.20;;;;;;6198608;28;20073;-77
2021/05/10 10:27:44;;;;;;;1.00;0.60;;;23.80;49.90;;;;;;6198539;28;20133;-76
2021/05/10 10:30:51;;;;;;;2.58;0.60;;;23.80;49.60;;;;;;6197923;28;20125;-76
2021/05/10 10:33:57;;;;;;;0.38;0.30;;;23.70;48.70;;;;;;6198092;28;20054;-76
2021/05/10 10:37:00;;;;;;;2.13;0.57;;;23.50;49.20;;;;;;6197888;28;20125;-76
2021/05/10 10:40:03;;;;;;;1.92;0.52;;;23.20;49.80;;;;;;6198530;28;20086;-76
2021/05/10 10:43:23;;;;;;;1.20;0.50;;;23.10;50.70;;;;;;6199007;28;20054;-75
2021/05/10 10:46:31;;;;;;;1.88;0.50;;;23.00;51.20;;;;;;6197533;28;20082;-76
2021/05/10 10:49:34;;;;;;;2.05;0.20;;;22.80;51.40;;;;;;6197598;28;20042;-76
2021/05/10 10:52:48;;;;;;;1.30;0.32;;;22.50;52.00;;;;;;6197669;28;20042;-76
2021/05/10 10:55:55;;;;;;;1.02;0.70;;;22.30;52.40;;;;;;6202885;28;20085;-76
2021/05/10 10:59:11;;;;;;;;;;;22.10;53.40;;;;;;6216061;28;20419;-76
2021/05/10 11:02:23;;;;;;;1.27;0.40;;;22.00;53.70;;;;;;6222407;28;19927;-76
2021/05/10 11:05:27;;;;;;;1.30;1.10;;;21.80;54.10;;;;;;6222625;28;20157;-76
2021/05/10 11:08:44;;;;;;;2.97;0.40;;;21.70;54.40;;;;;;6226645;28;20048;-77
2021/05/10 11:11:45;;;;;;;0.38;0.35;;;21.70;54.80;;;;;;6226050;28;20127;-76
2021/05/10 11:14:46;;;;;;;0.90;0.40;;;21.60;55.20;;;;;;6226385;28;20076;-76
2021/05/10 11:17:55;;;;;;;0.50;0.50;;;21.40;55.20;;;;;;6226036;28;20088;-76
2021/05/10 11:20:56;;;;;;;0.75;0.50;;;21.20;55.90;;;;;;6226020;28;20120;-76
2021/05/10 11:23:58;;;;;;;0.63;0.50;;;21.20;56.70;;;;;;6226009;28;20057;-76
2021/05/10 11:27:02;;;;;;;0.75;0.40;;;21.10;56.50;;;;;;6226850;28;20161;-77
2021/05/10 11:30:04;;;;;;;1.15;0.50;;;20.90;56.60;;;;;;6225679;28;20676;-76
2021/05/10 11:33:06;;;;;;;0.98;0.80;;;20.80;57.20;;;;;;6225888;28;20073;-76
2021/05/10 11:36:08;;;;;;;0.90;0.45;;;20.70;57.50;;;;;;6226296;28;20120;-76
2021/05/10 11:39:11;;;;;;;1.60;0.40;;;20.70;58.40;;;;;;6226184;28;20060;-76
2021/05/10 11:42:13;;;;;;;2.10;0.60;;;20.70;58.10;;;;;;6226202;28;20050;-76
2021/05/10 11:45:15;;;;;;;1.30;0.50;;;20.70;58.10;;;;;;6225871;28;20073;-77
2021/05/10 11:48:41;;;;;;;0.82;0.40;;;20.70;58.00;;;;;;6225745;28;20096;-77
2021/05/10 11:51:42;;;;;;;0.65;0.50;;;20.70;58.40;;;;;;6226034;28;20053;-77
2021/05/10 11:54:45;;;;;;;2.50;0.40;;;20.60;58.00;;;;;;6225474;28;20410;-77
2021/05/10 11:57:48;;;;;;;0.43;0.30;;;20.60;58.70;;;;;;6219192;28;20069;-77
2021/05/10 12:00:51;;;;;;;0.47;0.47;;;20.60;59.80;;;;;;6222547;28;20125;-77
2021/05/10 12:03:53;;;;;;;0.63;0.60;;;20.40;61.10;;;;;;6225471;28;20056;-77
2021/05/10 12:06:55;;;;;;;0.38;0.30;;;20.30;62.10;;;;;;6226445;28;20061;-76
2021/05/10 12:09:58;;;;;;;0.40;0.40;;;20.00;61.60;;;;;;6225130;28;20137;-77
2021/05/10 12:13:00;;;;;;;1.25;0.50;;;19.90;63.60;;;;;;6225803;28;20046;-77
2021/05/10 12:16:05;;;;;;;0.57;0.45;;;19.60;65.10;;;;;;6243211;28;20030;-77
2021/05/10 12:19:07;;;;;;;0.63;0.38;;;19.40;66.30;;;;;;6252858;28;20034;-76
2021/05/10 12:22:08;;;;;;;2.05;0.70;;;19.20;67.70;;;;;;6255675;28;20041;-76
2021/05/10 12:25:17;;;;;;;1.38;0.60;;;19.00;69.80;;;;;;6252991;28;20073;-76
2021/05/10 12:28:24;;;;;;;0.57;0.45;;;19.00;71.20;;;;;;6250584;28;20045;-76
2021/05/10 12:31:26;;;;;;;0.98;0.60;;;19.10;70.10;;;;;;6248320;28;20076;-76
2021/05/10 12:34:29;;;;;;;4.18;0.45;;;19.10;69.20;;;;;;6247306;28;20046;-76
2021/05/10 12:37:30;;;;;;;1.13;0.43;;;19.20;68.60;;;;;;6246370;28;20066;-76
2021/05/10 12:40:37;;;;;;;1.05;0.40;;;19.20;67.60;;;;;;6242064;28;20065;-75
2021/05/10 12:43:46;;;;;;;0.52;0.52;;;19.30;67.50;;;;;;6226285;28;20466;-76
2021/05/10 12:46:47;;;;;;;0.40;0.40;;;19.30;66.90;;;;;;6226078;28;20115;-75
2021/05/10 12:49:49;;;;;;;0.68;0.57;;;19.30;67.90;;;;;;6224575;28;20073;-76
2021/05/10 12:52:52;;;;;;;0.45;0.25;;;19.30;66.70;;;;;;6224706;28;20470;-76
2021/05/10 12:56:00;;;;;;;0.65;0.40;;;19.30;65.80;;;;;;6223740;28;20059;-76
2021/05/10 12:59:01;;;;;;;0.47;0.30;;;19.30;66.40;;;;;;6222689;28;20045;-76
2021/05/10 13:02:17;;;;;;;0.20;0.20;;;19.40;66.10;;;;;;6223098;28;20042;-76
2021/05/10 13:05:34;;;;;;;0.50;0.40;;;19.40;66.30;;;;;;6224387;28;20124;-76
2021/05/10 13:08:37;;;;;;;2.17;0.40;;;19.50;65.90;;;;;;6223126;28;20118;-76
2021/05/10 13:11:41;;;;;;;0.40;0.20;;;19.50;65.60;;;;;;6225430;28;20088;-77
2021/05/10 13:14:51;;;;;;;0.77;0.60;;;19.50;65.60;;;;;;6205062;28;20054;-76
2021/05/10 13:18:11;;;;;;;0.20;0.20;;;19.50;65.80;;;;;;6198988;28;20081;-76
2021/05/10 13:21:52;;;;;;;0.17;0.15;;;19.50;66.00;;;;;;6199745;28;20042;-76
2021/05/10 13:31:45;;;;;;;2.47;1.42;;;19.50;67.20;;;;;;6199909;28;20088;-77
2021/05/10 13:34:56;;;;;;;1.05;0.50;;;19.50;65.90;;;;;;6198899;28;20046;-76
2021/05/10 13:38:01;;;;;;;0.75;0.35;;;19.50;66.80;;;;;;6199265;28;20065;-76
2021/05/10 13:41:07;;;;;;;0.50;0.32;;;19.40;66.50;;;;;;6198728;28;20043;-76
2021/05/10 13:44:12;;;;;;;2.92;0.70;;;19.40;65.70;;;;;;6199158;28;20076;-77
2021/05/10 13:47:13;;;;;;;3.97;0.63;;;19.40;66.20;;;;;;6202003;28;20475;-76
2021/05/10 13:50:14;;;;;;;0.47;0.35;;;19.40;66.70;;;;;;6199127;28;20077;-76
2021/05/10 13:53:17;;;;;;;10.65;9.77;;;19.30;66.00;;;;;;6198741;28;20140;-75
2021/05/10 13:56:18;;;;;;;7.45;6.85;;;19.30;66.90;;;;;;6199169;28;20038;-77
2021/05/10 13:59:20;;;;;;;1.02;0.77;;;19.40;66.70;;;;;;6218920;28;20153;-77
2021/05/10 14:02:22;;;;;;;0.35;0.35;;;19.30;66.90;;;;;;6221531;28;20042;-78
2021/05/10 14:05:23;;;;;;;2.97;0.88;;;19.30;67.90;;;;;;6224256;28;20127;-77
2021/05/10 14:08:25;;;;;;;1.20;0.90;;;19.20;67.90;;;;;;6224575;28;20562;-77
2021/05/10 14:11:27;;;;;;;8.40;7.68;;;19.20;68.60;;;;;;6224539;28;20049;-78
2021/05/10 14:14:29;;;;;;;2.90;1.02;;;19.20;68.30;;;;;;6226791;28;20046;-77
2021/05/10 14:17:30;;;;;;;1.10;0.60;;;19.20;67.60;;;;;;6223499;28;20100;-77
2021/05/10 14:23:48;;;;;;;0.38;0.38;;;19.20;67.60;;;;;;6221996;28;20455;-77
2021/05/10 14:26:50;;;;;;;6.85;6.25;;;19.20;69.00;;;;;;6224534;28;20565;-78
2021/05/10 14:29:51;;;;;;;2.10;1.20;;;19.20;68.90;;;;;;6222810;28;20461;-77
2021/05/10 14:32:53;;;;;;;2.97;2.72;;;19.10;69.70;;;;;;6223616;28;20587;-77
2021/05/10 14:35:55;;;;;;;3.25;1.35;;;19.10;70.40;;;;;;6223009;28;20058;-77
2021/05/10 14:38:57;;;;;;;0.68;0.63;;;19.00;71.70;;;;;;6223820;28;20061;-78
2021/05/10 14:41:59;;;;;;;3.47;1.98;;;18.90;73.00;;;;;;6226425;28;20502;-77
2021/05/10 14:45:00;;;;;;;1.08;0.50;;;18.90;73.70;;;;;;6230469;28;20049;-77
2021/05/10 14:48:01;;;;;;;2.53;2.33;;;18.80;73.80;;;;;;6232563;28;20591;-78
2021/05/10 14:51:03;;;;;;;1.58;0.50;;;18.70;74.70;;;;;;6228921;28;20128;-77
2021/05/10 14:54:08;;;;;;;2.25;0.90;;;18.50;76.80;;;;;;6230345;28;20069;-77
2021/05/10 14:57:10;;;;;;;3.75;1.75;;;18.40;77.90;;;;;;6229010;28;20420;-77
2021/05/10 15:00:12;;;;;;;0.82;0.82;;;18.30;79.40;;;;;;6228203;28;20392;-77
2021/05/10 15:03:14;;;;;;;0.93;0.90;;;18.20;80.00;;;;;;6222961;28;20583;-77
2021/05/10 15:06:17;;;;;;;0.60;0.50;;;18.00;81.00;;;;;;6226762;28;20175;-77
2021/05/10 15:09:19;;;;;;;0.65;0.55;;;17.90;82.10;;;;;;6225530;28;20046;-77
2021/05/10 15:12:21;;;;;;;0.80;0.60;;;17.80;83.20;;;;;;6225823;28;20089;-76
2021/05/10 15:15:22;;;;;;;0.55;0.47;;;17.70;84.70;;;;;;6226342;28;20529;-75
2021/05/10 15:18:23;;;;;;;1.42;0.60;;;17.70;85.80;;;;;;6226011;28;20120;-76
2021/05/10 15:21:25;;;;;;;0.85;0.80;;;17.70;86.90;;;;;;6225307;28;20857;-76
2021/05/10 15:24:27;;;;;;;1.38;1.00;;;17.60;87.70;;;;;;6225716;28;20125;-77
2021/05/10 15:27:28;;;;;;;1.35;1.23;;;17.60;88.10;;;;;;6226061;28;20077;-77
2021/05/10 15:30:30;;;;;;;1.20;1.13;;;17.60;89.30;;;;;;6225315;28;20476;-77
2021/05/10 15:33:31;;;;;;;1.02;0.63;;;17.60;89.10;;;;;;6225916;28;20077;-77
2021/05/10 15:36:33;;;;;;;2.88;1.15;;;17.50;88.70;;;;;;6225070;28;20455;-77
2021/05/10 15:39:35;;;;;;;2.17;1.02;;;17.50;89.10;;;;;;6239516;23;20077;-74
2021/05/10 15:42:36;;;;;;;0.90;0.60;;;17.50;90.00;;;;;;6224392;28;20129;-74
2021/05/10 15:45:37;;;;;;;1.02;0.77;;;17.40;90.30;;;;;;6224605;28;20531;-74
2021/05/10 15:48:39;;;;;;;0.93;0.70;;;17.30;90.00;;;;;;6223911;28;20442;-74
2021/05/10 15:51:40;;;;;;;0.70;0.55;;;17.20;90.20;;;;;;6224233;28;20493;-74
2021/05/10 15:54:42;;;;;;;0.80;0.60;;;17.10;89.40;;;;;;6224883;28;20641;-74
2021/05/10 15:57:44;;;;;;;0.90;0.70;;;17.10;89.80;;;;;;6224626;28;20068;-74
2021/05/10 16:00:45;;;;;;;2.30;0.38;;;17.10;90.20;;;;;;6223581;28;20055;-74
2021/05/10 16:03:47;;;;;;;5.72;4.63;;;17.10;89.80;;;;;;6201059;28;20535;-74
2021/05/10 16:06:48;;;;;;;0.73;0.70;;;17.10;90.00;;;;;;6200850;28;20563;-74